< Cyclone 201007 2010 Season Cyclone 201011 >
Cyclone 201009 (Ului)
General InformationDetailed Track InformationTrack Information on Google MapsList of All Images || ResourceGoogle EarthGE AnimationAtom FeedGeoJSON
Detalied Best Track Wind (Time Zone = UTC)
Year Month Day Hour Lat. Long. Wind (kt) Gust (kt) Direc. of Major Storm Axis Radius of Major Storm Axis (nm) Radius of Minor Storm Axis (nm) Direc. of Major Gale Axis Radius of Major Gale Axis (nm) Radius of Minor Gale Axis (nm) Image
2010 3 14 18 -12.8 160.0 105 145 symmetric - - symmetric - - Image
2010 3 15 00 -12.8 159.5 105 145 symmetric - - symmetric - - Image
2010 3 15 06 -12.9 159.0 105 145 symmetric - - symmetric - - Image
2010 3 15 12 -13.0 158.7 100 140 symmetric - - symmetric - - Image
2010 3 15 18 -13.1 158.4 95 135 symmetric - - symmetric - - Image
2010 3 16 00 -13.2 158.1 100 140 symmetric - - symmetric - - Image
2010 3 16 06 -13.3 158.0 105 145 symmetric - - symmetric - - Image
2010 3 16 12 -13.4 158.0 100 140 symmetric - - symmetric - - Image
2010 3 16 18 -13.6 158.0 100 140 symmetric - - symmetric - - Image
2010 3 17 00 -13.7 158.0 100 140 symmetric - - symmetric - - Image
2010 3 17 06 -13.9 158.0 95 135 symmetric - - symmetric - - Image
2010 3 17 12 -14.2 158.0 85 120 symmetric - - symmetric - - Image
2010 3 17 18 -14.6 157.9 85 120 symmetric - - symmetric - - Image
2010 3 18 00 -14.8 157.8 80 110 symmetric - - symmetric - - Image
2010 3 18 06 -15.0 157.7 75 105 symmetric - - symmetric - - Image
2010 3 18 12 -15.4 157.5 65 90 symmetric - - symmetric - - Image
2010 3 18 18 -16.1 157.3 55 75 symmetric - - symmetric - - Image
2010 3 19 00 -16.5 156.6 55 75 symmetric - - symmetric - - Image
2010 3 19 06 -17.3 156.1 55 75 symmetric - - symmetric - - Image
2010 3 19 12 -17.9 155.6 55 75 symmetric - - symmetric - - Image
2010 3 19 18 -18.7 154.3 55 75 symmetric - - symmetric - - Image
2010 3 20 00 -19.5 152.9 55 75 symmetric - - symmetric - - Image
2010 3 20 06 -19.8 151.3 65 90 symmetric - - symmetric - - Image
2010 3 20 12 -19.9 149.8 80 110 symmetric - - symmetric - - Image
2010 3 20 18 -20.3 148.1 60 85 symmetric - - symmetric - - Image
2010 3 20 22 -20.6 146.8 30 45 symmetric - - symmetric - - Image
< Cyclone 201007 2010 Season Cyclone 201011 >

Help